Time;durP1;ratioP1;P1;durP2;ratioP2;P2;SDS_P1;SDS_P2;PMS_P1;PMS_P2;Temp;Humidity;BMP_temperature;BMP_pressure;BME280_temperature;BME280_humidity;BME280_pressure;Samples;Min_cycle;Max_cycle;Signal;HPM_P1;HPM_P2
2021/09/27 00:01:33;;;;;;;35.88;16.42;;;;;;;18.88;100.00;96509.84;5008463;28;20205;-74
2021/09/27 00:04:01;;;;;;;30.98;16.48;;;;;;;18.94;100.00;96506.31;5005378;28;20219;-73
2021/09/27 00:06:27;;;;;;;30.83;15.68;;;;;;;18.83;100.00;96515.03;5008306;28;20199;-73
2021/09/27 00:08:54;;;;;;;26.75;15.57;;;;;;;18.86;100.00;96511.13;5009251;28;20240;-72
2021/09/27 00:11:23;;;;;;;31.10;16.13;;;;;;;18.96;100.00;96507.72;5005226;28;20879;-73
2021/09/27 00:13:53;;;;;;;29.35;15.00;;;;;;;18.93;100.00;96515.34;5008595;28;20198;-72
2021/09/27 00:16:21;;;;;;;31.30;15.35;;;;;;;18.88;100.00;96512.53;5009556;28;20212;-72
2021/09/27 00:18:47;;;;;;;33.22;16.73;;;;;;;18.78;100.00;96516.75;5014760;28;20225;-72
2021/09/27 00:21:18;;;;;;;33.35;16.55;;;;;;;18.93;100.00;96507.34;5003776;28;20201;-72
2021/09/27 00:23:46;;;;;;;32.70;16.05;;;;;;;18.84;100.00;96508.66;5004177;28;20230;-72
2021/09/27 00:26:13;;;;;;;32.53;16.20;;;;;;;18.68;100.00;96509.22;5007393;28;20201;-73
2021/09/27 00:28:39;;;;;;;36.20;17.90;;;;;;;18.74;100.00;96511.03;5009420;28;20225;-72
2021/09/27 00:31:06;;;;;;;35.90;17.58;;;;;;;18.89;100.00;96500.81;5003713;28;20209;-73
2021/09/27 00:33:33;;;;;;;35.33;16.80;;;;;;;18.74;100.00;96508.34;5006444;28;20213;-72
2021/09/27 00:36:00;;;;;;;31.38;16.83;;;;;;;18.82;100.00;96504.59;5008014;28;20202;-73
2021/09/27 00:38:28;;;;;;;31.80;16.30;;;;;;;18.83;100.00;96507.03;5000266;28;20230;-73
2021/09/27 00:40:58;;;;;;;32.75;16.20;;;;;;;18.68;100.00;96500.41;5006686;28;20588;-73
2021/09/27 00:43:26;;;;;;;29.35;16.02;;;;;;;18.68;100.00;96503.06;5009699;28;20203;-73
2021/09/27 00:45:56;;;;;;;35.17;15.95;;;;;;;18.83;100.00;96496.34;5004191;28;20201;-73
2021/09/27 00:48:24;;;;;;;32.58;15.57;;;;;;;18.63;100.00;96495.72;5001102;28;20240;-72
2021/09/27 00:50:55;;;;;;;31.90;15.68;;;;;;;18.60;100.00;96490.81;5005680;28;20201;-73
2021/09/27 00:53:25;;;;;;;34.85;15.82;;;;;;;18.49;100.00;96494.22;5004847;28;20764;-72
2021/09/27 00:55:55;;;;;;;30.70;15.35;;;;;;;18.55;100.00;96490.66;5007660;28;20210;-73
2021/09/27 00:58:23;;;;;;;30.73;14.57;;;;;;;18.49;100.00;96488.88;5007097;28;20222;-73
2021/09/27 01:00:50;;;;;;;31.63;15.10;;;;;;;18.41;100.00;96486.47;5005301;28;20218;-73
2021/09/27 01:03:17;;;;;;;32.55;15.65;;;;;;;18.42;100.00;96487.31;5003815;28;20210;-72
2021/09/27 01:05:49;;;;;;;31.52;15.77;;;;;;;18.49;100.00;96472.06;5004324;28;20241;-72
2021/09/27 01:08:23;;;;;;;31.45;15.50;;;;;;;18.50;100.00;96477.16;5007975;28;20234;-73
2021/09/27 01:11:11;;;;;;;29.92;15.88;;;;;;;18.48;100.00;96473.91;5007614;28;20214;-73
2021/09/27 01:14:02;;;;;;;32.13;15.75;;;;;;;18.52;100.00;96474.28;5005604;28;20206;-73
2021/09/27 01:16:39;;;;;;;30.63;15.80;;;;;;;18.51;100.00;96464.66;5015771;28;20213;-73
2021/09/27 01:19:33;;;;;;;31.52;16.42;;;;;;;18.59;100.00;96467.84;5011313;28;20229;-73
2021/09/27 01:22:05;;;;;;;30.00;14.50;;;;;;;18.44;100.00;96464.72;5007097;28;20753;-73
2021/09/27 01:25:07;;;;;;;28.27;14.57;;;;;;;18.49;100.00;96472.84;5007554;28;20222;-72
2021/09/27 01:27:49;;;;;;;36.10;17.02;;;;;;;18.49;100.00;96467.50;4990768;28;20221;-72
2021/09/27 01:30:29;;;;;;;35.17;14.68;;;;;;;18.36;100.00;96466.84;5016368;28;20558;-72
2021/09/27 01:32:59;;;;;;;30.23;14.55;;;;;;;18.31;100.00;96466.69;5014187;28;20206;-72
2021/09/27 01:35:47;;;;;;;31.38;15.60;;;;;;;18.27;100.00;96464.69;5009625;28;20214;-73
2021/09/27 01:38:26;;;;;;;30.67;15.10;;;;;;;18.31;100.00;96465.88;5008760;28;20603;-73
2021/09/27 01:41:12;;;;;;;33.63;15.98;;;;;;;18.21;100.00;96469.00;5006298;28;20206;-72
2021/09/27 01:43:44;;;;;;;31.35;15.07;;;;;;;18.19;100.00;96475.59;5014042;28;20203;-73
2021/09/27 01:46:18;;;;;;;32.33;15.85;;;;;;;17.98;100.00;96476.75;5012041;28;20205;-72
2021/09/27 01:48:53;;;;;;;35.95;16.77;;;;;;;18.06;100.00;96475.69;5009494;28;20236;-73
2021/09/27 01:51:29;;;;;;;32.38;15.65;;;;;;;18.14;100.00;96473.56;5013962;28;21235;-72
2021/09/27 01:54:02;;;;;;;30.10;14.27;;;;;;;18.20;100.00;96472.75;5005937;28;20213;-73
2021/09/27 01:56:35;;;;;;;28.85;14.40;;;;;;;18.15;100.00;96469.03;5004171;28;20210;-73
2021/09/27 01:59:09;;;;;;;29.45;14.48;;;;;;;18.22;100.00;96469.84;5003027;28;20236;-73
2021/09/27 02:01:46;;;;;;;30.77;13.57;;;;;;;18.14;100.00;96468.22;5006275;28;20213;-73
2021/09/27 02:04:21;;;;;;;29.60;13.15;;;;;;;18.09;100.00;96467.25;5009800;28;20596;-73
2021/09/27 02:06:50;;;;;;;23.67;13.07;;;;;;;18.03;100.00;96466.25;5006361;28;20544;-74
2021/09/27 02:09:22;;;;;;;27.73;13.63;;;;;;;18.00;100.00;96465.91;5009093;28;20234;-73
2021/09/27 02:11:53;;;;;;;30.95;13.02;;;;;;;17.98;100.00;96463.44;5006384;28;20210;-73
2021/09/27 02:14:26;;;;;;;31.08;12.52;;;;;;;17.95;100.00;96463.88;5009405;28;20206;-74
2021/09/27 02:16:59;;;;;;;32.00;14.85;;;;;;;18.01;100.00;96462.19;5013065;28;20693;-73
2021/09/27 02:19:36;;;;;;;26.40;13.38;;;;;;;18.07;100.00;96466.66;5007471;28;20218;-74
2021/09/27 02:22:10;;;;;;;27.58;13.77;;;;;;;18.11;100.00;96465.19;5009495;28;20235;-73
2021/09/27 02:24:41;;;;;;;26.75;13.38;;;;;;;18.03;100.00;96470.78;5007311;28;20233;-74
2021/09/27 02:27:08;;;;;;;26.63;12.82;;;;;;;17.82;100.00;96465.84;5006138;28;20210;-74
2021/09/27 02:29:36;;;;;;;18.63;10.20;;;;;;;17.89;100.00;96469.25;5010663;28;20240;-73
2021/09/27 02:32:10;;;;;;;21.33;11.40;;;;;;;18.13;100.00;96476.47;5007184;28;20221;-73
2021/09/27 02:34:45;;;;;;;19.35;9.88;;;;;;;18.18;100.00;96468.66;5006382;28;20233;-74
2021/09/27 02:37:20;;;;;;;16.88;8.70;;;;;;;17.98;100.00;96465.28;5007279;28;20213;-73
2021/09/27 02:39:54;;;;;;;18.70;10.07;;;;;;;18.04;100.00;96470.56;5011160;28;21125;-73
2021/09/27 02:42:31;;;;;;;17.77;8.70;;;;;;;17.88;100.00;96463.13;5008876;28;20213;-73
2021/09/27 02:44:57;;;;;;;18.98;9.65;;;;;;;17.83;100.00;96470.94;5009864;28;20233;-73
2021/09/27 02:47:28;;;;;;;21.13;11.52;;;;;;;17.99;100.00;96466.94;5004323;28;21451;-74
2021/09/27 02:49:58;;;;;;;24.55;11.43;;;;;;;17.98;100.00;96463.44;5009791;28;20317;-74
2021/09/27 02:52:26;;;;;;;21.02;11.07;;;;;;;17.99;100.00;96461.59;5006897;28;20202;-74
2021/09/27 02:54:57;;;;;;;28.08;12.90;;;;;;;18.07;100.00;96461.31;5006270;28;20689;-73
2021/09/27 02:57:56;;;;;;;32.22;15.32;;;;;;;18.15;100.00;96456.53;5007538;28;20210;-73
2021/09/27 03:00:27;;;;;;;23.27;12.30;;;;;;;17.95;100.00;96457.72;5003596;28;20209;-73
2021/09/27 03:03:07;;;;;;;27.10;13.05;;;;;;;18.03;100.00;96460.13;5006379;28;20722;-73
2021/09/27 03:05:47;;;;;;;27.27;12.25;;;;;;;18.01;100.00;96456.84;5005460;28;20233;-73
2021/09/27 03:08:32;;;;;;;19.65;10.88;;;;;;;18.11;100.00;96457.97;5013096;28;20740;-73
2021/09/27 03:11:16;;;;;;;23.70;11.98;;;;;;;18.05;100.00;96456.19;5006653;28;20229;-73
2021/09/27 03:13:51;;;;;;;25.00;12.00;;;;;;;18.03;100.00;96454.78;5005382;28;20206;-74
2021/09/27 03:16:39;;;;;;;20.95;11.25;;;;;;;17.99;100.00;96442.94;5007149;28;20209;-73
2021/09/27 03:19:28;;;;;;;28.33;11.70;;;;;;;17.87;100.00;96452.63;5009169;28;20232;-74
2021/09/27 03:22:03;;;;;;;19.52;10.77;;;;;;;17.85;100.00;96441.38;5006457;28;20217;-74
2021/09/27 03:24:44;;;;;;;21.85;11.70;;;;;;;17.92;100.00;96452.81;5005674;28;20218;-73
2021/09/27 03:27:19;;;;;;;24.10;13.70;;;;;;;17.79;100.00;96452.91;5005760;28;20206;-74
2021/09/27 03:29:58;;;;;;;27.83;12.50;;;;;;;17.77;100.00;96449.66;5008839;28;20232;-74
2021/09/27 03:32:31;;;;;;;34.78;15.02;;;;;;;17.61;100.00;96447.50;5006164;28;20214;-73
2021/09/27 03:35:06;;;;;;;22.70;11.85;;;;;;;17.70;100.00;96451.53;5005906;28;21077;-73
2021/09/27 03:37:46;;;;;;;28.20;13.77;;;;;;;17.75;100.00;96457.03;5004892;28;20206;-73
2021/09/27 03:40:38;;;;;;;33.05;15.40;;;;;;;17.79;100.00;96455.56;5006612;28;21211;-74
2021/09/27 03:43:14;;;;;;;29.23;14.15;;;;;;;17.75;100.00;96462.38;5009043;28;20575;-73
2021/09/27 03:45:52;;;;;;;21.23;11.02;;;;;;;17.60;100.00;96453.84;5004447;28;21120;-73
2021/09/27 03:48:24;;;;;;;27.00;12.40;;;;;;;17.55;100.00;96456.34;5007073;28;20222;-74
2021/09/27 03:50:56;;;;;;;21.30;10.80;;;;;;;17.53;100.00;96457.63;5009541;28;20209;-73
2021/09/27 03:53:29;;;;;;;20.38;11.70;;;;;;;17.57;100.00;96458.81;5008318;28;20298;-72
2021/09/27 03:56:01;;;;;;;32.35;14.88;;;;;;;17.58;100.00;96455.94;5005529;28;20619;-73
2021/09/27 03:58:32;;;;;;;26.25;13.77;;;;;;;17.60;100.00;96459.19;5006076;28;20226;-73
2021/09/27 04:01:05;;;;;;;28.77;14.65;;;;;;;17.45;100.00;96458.69;5010368;28;20206;-73
2021/09/27 04:03:43;;;;;;;24.45;12.70;;;;;;;17.61;100.00;96455.50;5009466;28;20206;-73
2021/09/27 04:06:20;;;;;;;42.28;17.27;;;;;;;17.73;100.00;96459.09;5004168;28;20226;-72
2021/09/27 04:08:55;;;;;;;40.05;19.08;;;;;;;17.74;100.00;96455.41;5008206;28;20238;-73
2021/09/27 04:11:32;;;;;;;37.05;17.42;;;;;;;17.63;100.00;96457.94;5002335;28;20229;-73
2021/09/27 04:14:07;;;;;;;36.90;17.75;;;;;;;17.62;100.00;96462.47;5003486;28;20212;-72
2021/09/27 04:16:43;;;;;;;43.80;20.48;;;;;;;17.69;100.00;96463.22;5005857;28;20680;-72
2021/09/27 04:19:18;;;;;;;41.75;19.70;;;;;;;17.74;100.00;96466.06;5005752;28;20597;-73
2021/09/27 04:21:51;;;;;;;44.92;20.70;;;;;;;17.78;100.00;96469.94;5010537;28;20264;-72
2021/09/27 04:24:37;;;;;;;48.97;22.67;;;;;;;17.73;100.00;96464.44;5008550;28;20202;-73
2021/09/27 04:27:15;;;;;;;46.28;21.50;;;;;;;17.78;100.00;96465.44;5001866;28;20209;-73
2021/09/27 04:29:58;;;;;;;47.92;22.13;;;;;;;17.78;100.00;96460.09;5009850;28;20230;-73
2021/09/27 04:32:38;;;;;;;42.33;21.83;;;;;;;17.79;100.00;96464.41;5008318;28;20198;-73
2021/09/27 04:35:17;;;;;;;47.85;20.65;;;;;;;17.85;100.00;96474.19;5006120;28;20213;-73
2021/09/27 04:37:45;;;;;;;45.65;20.20;;;;;;;17.65;100.00;96470.03;5005610;28;20225;-73
2021/09/27 04:40:17;;;;;;;38.70;19.17;;;;;;;17.76;100.00;96469.34;5009441;28;20207;-72
2021/09/27 04:43:07;;;;;;;36.97;17.95;;;;;;;17.87;100.00;96464.16;5009575;28;20217;-73
2021/09/27 04:45:46;;;;;;;34.95;17.10;;;;;;;17.86;100.00;96470.50;5009289;28;20226;-73
2021/09/27 04:48:28;;;;;;;36.90;17.02;;;;;;;17.80;100.00;96471.34;5008774;28;20239;-72
2021/09/27 04:51:03;;;;;;;33.33;16.92;;;;;;;17.90;100.00;96468.22;5007882;28;20213;-72
2021/09/27 04:53:54;;;;;;;40.20;17.33;;;;;;;17.93;100.00;96476.59;5008498;28;20205;-73
2021/09/27 04:56:33;;;;;;;37.75;17.38;;;;;;;17.89;100.00;96466.59;5013138;28;20225;-73
2021/09/27 04:59:13;;;;;;;33.80;16.80;;;;;;;17.86;100.00;96469.69;5009195;28;20244;-72
2021/09/27 05:02:00;;;;;;;41.40;17.08;;;;;;;17.92;100.00;96463.47;5013947;28;20882;-72
2021/09/27 05:04:36;;;;;;;39.50;17.98;;;;;;;17.87;100.00;96472.13;5016649;28;20666;-73
2021/09/27 05:07:26;;;;;;;38.42;16.52;;;;;;;17.99;100.00;96475.72;5002588;28;20268;-72
2021/09/27 05:10:11;;;;;;;34.10;16.13;;;;;;;17.93;100.00;96465.91;4999063;28;20252;-72
2021/09/27 05:13:18;;;;;;;32.78;16.33;;;;;;;18.03;100.00;96460.13;5008980;28;20214;-73
2021/09/27 05:15:58;;;;;;;40.72;16.08;;;;;;;17.99;100.00;96464.25;4999604;28;20740;-72
2021/09/27 05:18:51;;;;;;;38.22;17.25;;;;;;;18.02;100.00;96466.47;5013308;28;20221;-73
2021/09/27 05:21:40;;;;;;;34.53;16.50;;;;;;;17.98;100.00;96457.28;5007853;28;20207;-73
2021/09/27 05:24:32;;;;;;;40.45;19.48;;;;;;;18.02;100.00;96464.63;5012798;28;21320;-73
2021/09/27 05:27:15;;;;;;;47.10;21.27;;;;;;;17.85;100.00;96462.72;5004880;28;20603;-72
2021/09/27 05:30:00;;;;;;;51.65;22.65;;;;;;;17.72;100.00;96462.81;5011901;28;20922;-72
2021/09/27 05:32:37;;;;;;;50.92;21.13;;;;;;;17.71;100.00;96461.97;5006456;28;20218;-70
2021/09/27 05:35:16;;;;;;;42.50;18.92;;;;;;;17.82;100.00;96455.16;5009498;28;20216;-70
2021/09/27 05:37:54;;;;;;;46.35;19.15;;;;;;;17.79;100.00;96460.91;5007654;28;20213;-71
2021/09/27 05:40:31;;;;;;;45.22;18.90;;;;;;;17.57;100.00;96464.16;5005787;28;20216;-70
2021/09/27 05:43:30;;;;;;;46.55;18.17;;;;;;;17.80;100.00;96459.88;5010591;28;20590;-71
2021/09/27 05:46:14;;;;;;;40.85;18.15;;;;;;;17.85;100.00;96463.53;4980881;28;20320;-70
2021/09/27 05:48:46;;;;;;;41.75;17.80;;;;;;;17.74;100.00;96463.41;5006665;28;20249;-70
2021/09/27 05:51:17;;;;;;;41.60;18.48;;;;;;;17.75;100.00;96457.03;5008874;28;20212;-71
2021/09/27 05:53:54;;;;;;;39.35;17.90;;;;;;;17.78;100.00;96457.44;5007741;28;20206;-71
2021/09/27 05:56:28;;;;;;;38.13;17.45;;;;;;;17.79;100.00;96463.56;5006430;28;20209;-70
2021/09/27 05:59:02;;;;;;;35.95;17.13;;;;;;;17.88;100.00;96460.44;5004608;28;20234;-73
2021/09/27 06:01:43;;;;;;;37.30;17.25;;;;;;;17.83;100.00;96462.09;5010843;28;20279;-70
2021/09/27 06:04:23;;;;;;;34.97;18.27;;;;;;;17.79;100.00;96468.91;5013738;28;20209;-71
2021/09/27 06:06:59;;;;;;;36.90;18.65;;;;;;;17.52;100.00;96469.31;5006421;28;20242;-71
2021/09/27 06:09:37;;;;;;;43.47;18.45;;;;;;;17.80;100.00;96462.56;5009912;28;20230;-70
2021/09/27 06:12:14;;;;;;;44.30;19.05;;;;;;;17.52;100.00;96467.44;5003410;28;20209;-71
2021/09/27 06:14:41;;;;;;;38.05;18.35;;;;;;;17.45;100.00;96472.00;5009612;28;20596;-71
2021/09/27 06:17:24;;;;;;;38.22;17.67;;;;;;;17.80;100.00;96470.53;5009651;28;20206;-71
2021/09/27 06:19:55;;;;;;;42.72;18.80;;;;;;;17.90;100.00;96477.03;5010579;28;20229;-70
2021/09/27 06:22:39;;;;;;;35.78;16.63;;;;;;;17.90;100.00;96478.88;5009627;28;20198;-71
2021/09/27 06:25:14;;;;;;;38.70;18.00;;;;;;;17.90;100.00;96477.03;5009174;28;20207;-71
2021/09/27 06:27:50;;;;;;;40.35;17.48;;;;;;;17.93;100.00;96475.78;5005256;28;20217;-70
2021/09/27 06:30:25;;;;;;;38.85;18.60;;;;;;;17.69;100.00;96478.41;5006606;28;20725;-70
2021/09/27 06:33:04;;;;;;;40.75;15.68;;;;;;;17.33;100.00;96476.34;5007369;28;20213;-70
2021/09/27 06:35:34;;;;;;;47.47;20.80;;;;;;;17.23;100.00;96478.66;5010766;28;20206;-70
2021/09/27 06:38:01;;;;;;;45.75;19.65;;;;;;;17.11;100.00;96480.31;5001764;28;20226;-71
2021/09/27 06:40:28;;;;;;;58.38;22.70;;;;;;;17.53;100.00;96474.41;5006398;28;20671;-70
2021/09/27 06:42:55;;;;;;;47.72;20.23;;;;;;;17.20;100.00;96481.72;5004447;28;20206;-71
2021/09/27 06:45:21;;;;;;;53.72;22.02;;;;;;;17.18;100.00;96486.44;5006448;28;20203;-71
2021/09/27 06:47:48;;;;;;;48.13;19.65;;;;;;;17.00;100.00;96482.81;5008145;28;20210;-70
2021/09/27 06:50:17;;;;;;;46.72;19.02;;;;;;;17.00;100.00;96487.34;5006066;28;20211;-70
2021/09/27 06:52:43;;;;;;;54.65;22.73;;;;;;;16.94;100.00;96483.69;5008497;28;20221;-70
2021/09/27 06:55:11;;;;;;;45.97;20.10;;;;;;;17.20;100.00;96489.69;5005618;28;20206;-71
2021/09/27 06:59:27;;;;;;;53.80;21.77;;;;;;;17.24;100.00;96490.94;5092411;27;20542;-73
2021/09/27 07:01:54;;;;;;;54.70;23.73;;;;;;;17.47;100.00;96491.25;5093418;28;20210;-73
2021/09/27 07:04:21;;;;;;;52.95;22.60;;;;;;;17.59;100.00;96483.38;5093028;28;20211;-73
2021/09/27 07:06:47;;;;;;;51.53;20.38;;;;;;;17.31;100.00;96491.75;5093256;28;20199;-71
2021/09/27 07:09:14;;;;;;;56.30;24.40;;;;;;;17.18;100.00;96486.44;5094173;28;20230;-70
2021/09/27 07:11:42;;;;;;;57.83;24.27;;;;;;;17.52;100.00;96488.75;5094137;28;20218;-70
2021/09/27 07:14:09;;;;;;;56.42;25.88;;;;;;;17.38;100.00;96484.53;5094751;28;20195;-71
2021/09/27 07:16:37;;;;;;;61.35;24.70;;;;;;;17.71;100.00;96488.63;5093989;28;20195;-70
2021/09/27 07:19:05;;;;;;;59.50;26.30;;;;;;;17.83;100.00;96492.28;5094249;28;20223;-70
2021/09/27 07:21:32;;;;;;;62.17;26.27;;;;;;;18.22;100.00;96492.00;5094263;28;21029;-73
2021/09/27 07:23:58;;;;;;;63.67;27.10;;;;;;;18.40;100.00;96492.84;5094093;28;20206;-71
2021/09/27 07:26:26;;;;;;;57.05;24.88;;;;;;;18.21;100.00;96495.69;5093209;28;20218;-71
2021/09/27 07:28:56;;;;;;;45.30;22.52;;;;;;;18.10;100.00;96488.38;5093964;28;20254;-71
2021/09/27 09:15:58;;;;;;;41.63;21.92;;;;;;;18.61;100.00;96483.63;5096547;27;20502;-72
2021/09/27 09:18:28;;;;;;;42.30;23.08;;;;;;;19.34;100.00;96475.44;5094702;28;20675;-72
2021/09/27 09:20:58;;;;;;;44.20;23.40;;;;;;;19.91;100.00;96476.50;5094789;28;20223;-72
2021/09/27 09:23:29;;;;;;;40.30;22.98;;;;;;;19.69;98.14;96472.69;5094622;28;20210;-72
2021/09/27 09:25:56;;;;;;;35.47;21.48;;;;;;;19.54;99.33;96467.97;5094181;28;20215;-72
2021/09/27 09:28:24;;;;;;;36.17;22.20;;;;;;;20.32;96.93;96468.44;5094504;28;20214;-72
2021/09/27 09:30:53;;;;;;;36.45;20.25;;;;;;;20.20;94.52;96472.97;5095329;28;20233;-72
2021/09/27 09:33:40;;;;;;;33.28;18.70;;;;;;;20.35;94.64;96478.69;5095578;28;20214;-72
2021/09/27 09:36:09;;;;;;;30.60;17.85;;;;;;;20.42;93.01;96476.72;5094514;28;20761;-72
2021/09/27 09:38:37;;;;;;;32.05;19.35;;;;;;;20.80;93.94;96467.22;5095369;28;21331;-72
2021/09/27 09:41:04;;;;;;;35.00;18.40;;;;;;;20.61;92.56;96468.34;5095476;28;20226;-72
2021/09/27 09:43:33;;;;;;;33.10;17.65;;;;;;;20.53;93.61;96470.53;5095298;28;20663;-72
2021/09/27 09:46:06;;;;;;;31.05;17.83;;;;;;;20.24;94.50;96479.50;5094919;28;20206;-72
2021/09/27 09:48:34;;;;;;;32.67;18.20;;;;;;;20.06;94.15;96484.94;5095476;28;20211;-72
2021/09/27 09:51:20;;;;;;;28.67;18.35;;;;;;;20.27;92.40;96481.69;5095368;28;21199;-72
2021/09/27 09:54:01;;;;;;;30.77;18.40;;;;;;;20.49;92.09;96474.72;5095427;28;20203;-72
2021/09/27 09:56:32;;;;;;;28.55;17.58;;;;;;;20.32;92.10;96471.91;5093672;28;20203;-71
2021/09/27 09:59:00;;;;;;;29.95;17.27;;;;;;;20.15;91.87;96472.84;5090212;28;20626;-72
2021/09/27 10:01:29;;;;;;;29.48;17.75;;;;;;;20.54;90.64;96469.50;5093598;28;20223;-71
2021/09/27 10:04:02;;;;;;;29.17;17.33;;;;;;;20.74;89.47;96464.66;5093371;28;20621;-72
2021/09/27 10:06:37;;;;;;;30.63;18.05;;;;;;;20.93;88.39;96462.41;5093192;28;20203;-72
2021/09/27 10:09:08;;;;;;;30.80;17.67;;;;;;;21.00;88.16;96457.75;5093561;28;20294;-72
2021/09/27 10:11:38;;;;;;;28.00;16.80;;;;;;;21.49;88.60;96457.13;5092818;28;20606;-72
2021/09/27 10:14:20;;;;;;;28.35;16.73;;;;;;;21.60;84.09;96461.66;5093955;28;20219;-72
2021/09/27 10:16:49;;;;;;;26.83;15.68;;;;;;;21.07;85.76;96463.78;5092378;28;20206;-72
2021/09/27 10:19:23;;;;;;;28.48;16.08;;;;;;;21.03;87.30;96462.63;5092942;28;20215;-72
2021/09/27 10:21:58;;;;;;;28.38;16.15;;;;;;;21.53;85.28;96458.31;5093549;28;20310;-72
2021/09/27 10:24:33;;;;;;;25.25;14.95;;;;;;;21.63;83.01;96458.50;5090990;28;21005;-72
2021/09/27 10:27:02;;;;;;;24.67;14.43;;;;;;;21.89;82.96;96463.28;5080339;28;20214;-71
2021/09/27 10:29:31;;;;;;;22.27;13.90;;;;;;;21.75;82.18;96462.75;5078302;28;20204;-72
2021/09/27 10:32:00;;;;;;;22.77;13.68;;;;;;;21.52;82.81;96462.88;5079103;28;20223;-71
2021/09/27 10:34:30;;;;;;;23.95;13.18;;;;;;;21.51;83.43;96463.09;5079367;28;20227;-71
2021/09/27 10:37:07;;;;;;;25.42;14.45;;;;;;;21.70;81.95;96459.16;5079025;28;20214;-72
2021/09/27 10:39:33;;;;;;;25.60;13.32;;;;;;;21.87;80.98;96460.00;5079508;28;20196;-72
2021/09/27 10:42:04;;;;;;;20.30;12.18;;;;;;;22.02;79.71;96462.97;5078817;28;20227;-71
2021/09/27 10:44:36;;;;;;;18.95;11.05;;;;;;;22.15;80.42;96458.13;5078994;28;20212;-72
2021/09/27 10:47:07;;;;;;;19.30;10.38;;;;;;;22.37;78.06;96459.06;5078749;28;20658;-72
2021/09/27 10:49:44;;;;;;;21.63;10.60;;;;;;;22.07;81.32;96451.28;5078861;28;20226;-72
2021/09/27 10:52:24;;;;;;;12.73;7.40;;;;;;;22.12;74.05;96454.06;5078593;28;20228;-71
2021/09/27 10:55:00;;;;;;;14.07;7.88;;;;;;;22.24;76.36;96452.09;5079488;28;20740;-71
2021/09/27 10:57:40;;;;;;;15.30;7.43;;;;;;;22.75;73.55;96446.47;5077865;28;20578;-71
2021/09/27 11:00:18;;;;;;;16.58;8.13;;;;;;;23.05;76.09;96438.84;5078810;28;20207;-71
2021/09/27 11:02:50;;;;;;;10.60;6.03;;;;;;;22.83;70.75;96440.66;5079166;28;20223;-72
2021/09/27 11:05:33;;;;;;;13.45;5.93;;;;;;;22.65;72.08;96440.94;5079094;28;20207;-72
2021/09/27 11:08:09;;;;;;;10.25;5.93;;;;;;;22.73;70.45;96443.22;5078547;28;20207;-71
2021/09/27 11:10:43;;;;;;;9.05;4.90;;;;;;;22.39;69.37;96441.63;5078778;28;20210;-71
2021/09/27 11:13:16;;;;;;;9.43;5.95;;;;;;;22.34;69.70;96436.19;5078815;28;20211;-70
2021/09/27 11:15:54;;;;;;;10.25;6.45;;;;;;;22.75;70.50;96438.41;5077971;28;20799;-71
2021/09/27 11:18:28;;;;;;;9.48;5.95;;;;;;;22.75;71.95;96433.03;5078676;28;20199;-71
2021/09/27 11:21:15;;;;;;;10.70;6.00;;;;;;;22.90;71.19;96433.25;5078723;28;20227;-71
2021/09/27 11:23:44;;;;;;;10.68;6.05;;;;;;;22.95;70.44;96427.94;5078420;28;20574;-71
2021/09/27 11:26:34;;;;;;;10.48;6.13;;;;;;;23.40;72.22;96424.78;5076904;28;20296;-72
2021/09/27 11:29:32;;;;;;;9.55;6.30;;;;;;;23.42;69.51;96419.97;5079132;28;20858;-71
2021/09/27 11:32:20;;;;;;;9.98;5.57;;;;;;;23.11;67.95;96424.41;5078095;28;20310;-72
2021/09/27 11:34:57;;;;;;;9.05;6.20;;;;;;;22.84;68.83;96426.19;5078621;28;20227;-71
2021/09/27 11:37:28;;;;;;;9.52;6.53;;;;;;;23.12;70.43;96421.47;5076849;28;20215;-72
2021/09/27 11:40:16;;;;;;;9.02;5.45;;;;;;;23.39;70.50;96422.34;5078357;28;20204;-71
2021/09/27 11:42:55;;;;;;;8.77;5.70;;;;;;;22.96;73.08;96429.56;5077989;28;20228;-72
2021/09/27 11:45:48;;;;;;;8.13;5.25;;;;;;;23.19;70.90;96418.59;5078077;28;20199;-70
2021/09/27 11:48:48;;;;;;;8.35;4.97;;;;;;;23.19;66.51;96411.34;5077758;28;20200;-72
2021/09/27 11:51:37;;;;;;;9.27;5.10;;;;;;;22.93;68.25;96409.38;5077878;28;20231;-72
2021/09/27 11:54:21;;;;;;;8.18;5.15;;;;;;;;;;5078230;28;20200;-72
2021/09/27 11:57:01;;;;;;;7.75;4.97;;;;;;;23.20;68.67;96409.47;5077197;28;20286;-71
2021/09/27 11:59:31;;;;;;;7.13;4.50;;;;;;;22.99;68.10;96413.78;5074644;28;20671;-72
2021/09/27 12:02:08;;;;;;;6.40;4.00;;;;;;;22.91;65.70;96418.72;5077879;28;20227;-72
2021/09/27 12:04:53;;;;;;;7.22;4.43;;;;;;;23.09;65.61;96413.09;5077068;28;20555;-72
2021/09/27 12:07:25;;;;;;;6.55;4.28;;;;;;;23.15;65.07;96407.53;5076928;28;20203;-72
2021/09/27 12:09:56;;;;;;;7.93;4.40;;;;;;;23.42;67.21;96403.00;5077648;28;20208;-72
2021/09/27 12:12:27;;;;;;;7.55;4.32;;;;;;;23.41;67.76;96404.88;5077276;28;20277;-71
2021/09/27 12:14:56;;;;;;;8.35;4.68;;;;;;;23.18;68.69;96400.84;5077224;28;21034;-72
2021/09/27 12:17:30;;;;;;;6.70;4.50;;;;;;;23.30;64.63;96396.16;5074504;28;20212;-72
2021/09/27 12:20:00;;;;;;;5.57;4.10;;;;;;;23.32;66.38;96400.22;5076281;28;20200;-72
2021/09/27 12:22:30;;;;;;;5.82;4.00;;;;;;;23.33;64.16;96399.97;5076430;28;20235;-70
2021/09/27 12:24:56;;;;;;;7.82;4.40;;;;;;;23.23;62.91;96398.22;5077189;28;20199;-72
2021/09/27 12:27:27;;;;;;;6.13;4.15;;;;;;;23.41;63.15;96399.50;5075533;28;20691;-73
2021/09/27 12:29:57;;;;;;;6.57;4.47;;;;;;;23.20;64.49;96390.66;5076740;28;20203;-72
2021/09/27 12:32:28;;;;;;;6.28;4.38;;;;;;;23.46;64.00;96388.81;5076969;28;20243;-72
2021/09/27 12:34:55;;;;;;;8.43;3.65;;;;;;;23.53;65.76;96384.03;5077140;28;20231;-71
2021/09/27 12:37:23;;;;;;;4.13;3.15;;;;;;;23.53;62.05;96381.31;5075686;28;20208;-72
2021/09/27 12:39:51;;;;;;;5.72;4.00;;;;;;;23.38;60.93;96391.13;5075801;28;20459;-72
2021/09/27 12:42:21;;;;;;;5.70;3.67;;;;;;;23.53;61.38;96384.03;5076356;28;20228;-71
2021/09/27 12:44:52;;;;;;;5.18;3.80;;;;;;;23.58;60.36;96389.47;5077512;28;20212;-72
2021/09/27 12:47:19;;;;;;;6.72;4.03;;;;;;;23.59;60.17;96388.41;5075140;28;20637;-72
2021/09/27 12:49:50;;;;;;;5.32;3.75;;;;;;;23.70;60.62;96379.41;5076386;28;20209;-71
2021/09/27 12:52:27;;;;;;;5.38;3.92;;;;;;;23.92;61.84;96386.31;5076411;28;20235;-72
2021/09/27 12:54:54;;;;;;;7.28;4.20;;;;;;;23.65;61.12;96376.63;5076695;28;20234;-72
2021/09/27 12:57:26;;;;;;;7.63;4.13;;;;;;;23.97;61.43;96381.00;5075873;28;20206;-72
2021/09/27 12:59:56;;;;;;;5.93;4.40;;;;;;;23.82;61.04;96380.03;5073587;28;20200;-72
2021/09/27 13:02:25;;;;;;;5.07;3.75;;;;;;;23.89;60.95;96383.31;5076430;28;20311;-72
2021/09/27 13:05:01;;;;;;;5.47;3.95;;;;;;;23.72;61.21;96381.84;5075776;28;20656;-72
2021/09/27 13:07:39;;;;;;;7.78;4.30;;;;;;;23.77;61.03;96385.38;5075295;28;20543;-72
2021/09/27 13:10:17;;;;;;;5.63;4.10;;;;;;;23.75;62.21;96387.53;5076111;28;20214;-72
2021/09/27 13:13:05;;;;;;;6.57;4.35;;;;;;;23.82;61.54;96382.75;5076036;28;20227;-72
2021/09/27 13:15:37;;;;;;;5.57;4.00;;;;;;;23.82;59.75;96381.94;5075393;28;20262;-72
2021/09/27 13:18:08;;;;;;;4.68;3.60;;;;;;;24.03;61.39;96374.59;5076174;28;20591;-71
2021/09/27 13:20:45;;;;;;;7.28;3.60;;;;;;;23.88;59.75;96375.50;5075694;28;20231;-72
2021/09/27 13:23:13;;;;;;;7.47;4.07;;;;;;;23.96;59.54;96378.56;5076071;28;20942;-71
2021/09/27 13:25:44;;;;;;;4.35;2.95;;;;;;;23.90;59.67;96374.19;5075210;28;20196;-72
2021/09/27 13:28:15;;;;;;;5.63;3.53;;;;;;;24.05;58.42;96380.50;5075580;28;20679;-71
2021/09/27 13:30:57;;;;;;;6.03;3.90;;;;;;;24.13;59.24;96388.13;5076044;28;20235;-71
2021/09/27 13:33:36;;;;;;;4.78;3.30;;;;;;;23.98;58.39;96381.78;5075795;28;20395;-72
2021/09/27 13:36:06;;;;;;;4.70;3.60;;;;;;;24.13;59.16;96382.75;5074886;28;20230;-72
2021/09/27 13:38:36;;;;;;;6.15;3.47;;;;;;;24.08;58.84;96381.88;5075674;28;20372;-71